createdAt,value
2018-03-20T00:00:36.002Z,70.12
2018-03-20T00:03:04.250Z,70.07
2018-03-20T00:05:33.279Z,70.50
2018-03-20T00:08:01.530Z,70.16
2018-03-20T00:10:30.558Z,70.23
2018-03-20T00:12:58.813Z,70.69
2018-03-20T00:15:27.094Z,70.87
2018-03-20T00:17:55.350Z,70.27
2018-03-20T00:20:24.378Z,70.02
2018-03-20T00:22:52.633Z,68.92
2018-03-20T00:25:20.900Z,68.16
2018-03-20T00:27:49.917Z,67.84
2018-03-20T00:30:18.179Z,67.31
2018-03-20T00:32:46.443Z,67.40
2018-03-20T00:35:15.466Z,67.75
2018-03-20T00:37:43.736Z,67.99
2018-03-20T00:40:11.995Z,67.99
2018-03-20T00:42:40.260Z,67.86
2018-03-20T00:45:08.519Z,67.68
2018-03-20T00:47:36.784Z,67.85
2018-03-20T00:50:05.115Z,67.64
2018-03-20T00:52:33.371Z,67.94
2018-03-20T00:55:01.631Z,67.84
2018-03-20T00:57:30.679Z,68.13
2018-03-20T00:59:58.936Z,68.57
2018-03-20T01:02:27.185Z,69.11
2018-03-20T01:04:55.455Z,68.90
2018-03-20T01:07:24.474Z,68.92
2018-03-20T01:09:52.738Z,68.93
2018-03-20T01:12:20.991Z,69.16
2018-03-20T01:14:50.014Z,69.58
2018-03-20T01:17:18.271Z,70.18
2018-03-20T01:19:47.295Z,70.12
2018-03-20T01:22:15.549Z,70.27
2018-03-20T01:24:43.805Z,69.20
2018-03-20T01:27:12.826Z,68.97
2018-03-20T01:29:41.216Z,68.75
2018-03-20T01:32:09.469Z,68.78
2018-03-20T01:34:38.489Z,68.86
2018-03-20T01:37:06.811Z,68.99
2018-03-20T01:39:35.076Z,68.91
2018-03-20T01:42:03.336Z,68.86
2018-03-20T01:44:31.588Z,68.75
2018-03-20T01:46:59.851Z,68.68
2018-03-20T01:49:28.105Z,67.61
2018-03-20T01:51:57.147Z,67.75
2018-03-20T01:54:25.405Z,67.45
2018-03-20T01:56:53.696Z,67.61
2018-03-20T01:59:21.947Z,67.91
2018-03-20T02:01:50.231Z,67.64
2018-03-20T02:04:19.230Z,66.81
2018-03-20T02:06:47.494Z,66.99
2018-03-20T02:09:15.755Z,66.83
2018-03-20T02:11:44.786Z,66.63
2018-03-20T02:14:13.056Z,65.59
2018-03-20T02:16:41.315Z,66.37
2018-03-20T02:19:09.574Z,65.94
2018-03-20T02:21:38.595Z,65.93
2018-03-20T02:24:06.851Z,66.27
2018-03-20T02:26:35.116Z,65.89
2018-03-20T02:29:04.135Z,65.81
2018-03-20T02:31:32.387Z,65.87
2018-03-20T02:34:01.415Z,65.73
2018-03-20T02:36:29.672Z,65.85
2018-03-20T02:38:57.939Z,66.11
2018-03-20T02:41:26.191Z,65.72
2018-03-20T02:43:54.451Z,65.95
2018-03-20T02:46:22.708Z,65.68
2018-03-20T02:48:50.966Z,65.72
2018-03-20T02:51:19.222Z,66.07
2018-03-20T02:53:47.483Z,66.13
2018-03-20T02:56:16.504Z,65.83
2018-03-20T02:58:44.771Z,65.87
2018-03-20T03:01:13.011Z,65.73
2018-03-20T03:03:41.281Z,66.09
2018-03-20T03:06:09.594Z,65.96
2018-03-20T03:08:37.862Z,66.03
2018-03-20T03:11:06.114Z,66.33
2018-03-20T03:13:34.370Z,66.59
2018-03-20T03:16:02.630Z,66.72
2018-03-20T03:18:30.903Z,66.71
2018-03-20T03:20:59.163Z,66.97
2018-03-20T03:23:27.419Z,67.58
2018-03-20T03:25:55.682Z,68.19
2018-03-20T03:28:24.704Z,68.72
2018-03-20T03:30:52.964Z,69.28
2018-03-20T03:33:21.216Z,70.21
2018-03-20T03:35:49.470Z,70.08
2018-03-20T03:38:17.722Z,69.85
2018-03-20T03:40:45.996Z,69.43
2018-03-20T03:43:14.247Z,67.74
2018-03-20T03:45:42.506Z,67.81
2018-03-20T03:48:11.527Z,67.48
2018-03-20T03:50:39.785Z,68.75
2018-03-20T03:53:08.041Z,68.12
2018-03-20T03:55:36.294Z,67.33
2018-03-20T03:58:04.546Z,66.62
2018-03-20T04:00:32.807Z,65.67
2018-03-20T04:03:01.058Z,65.42
2018-03-20T04:05:30.087Z,65.01
2018-03-20T04:07:58.336Z,63.86
2018-03-20T04:10:26.591Z,63.84
2018-03-20T04:12:55.612Z,62.82
2018-03-20T04:15:23.859Z,63.53
2018-03-20T04:17:52.895Z,63.58
2018-03-20T04:20:21.148Z,63.44
2018-03-20T04:22:49.408Z,62.88
2018-03-20T04:25:18.431Z,64.81
2018-03-20T04:27:46.687Z,64.12
2018-03-20T04:30:15.697Z,63.34
2018-03-20T04:32:43.960Z,63.25
2018-03-20T04:35:12.213Z,63.60
2018-03-20T04:37:40.470Z,63.50
2018-03-20T04:40:09.487Z,63.68
2018-03-20T04:42:38.515Z,63.33
2018-03-20T04:45:06.770Z,64.63
2018-03-20T04:47:35.034Z,65.22
2018-03-20T04:50:04.053Z,67.13
2018-03-20T04:52:32.307Z,71.50
2018-03-20T04:55:01.323Z,72.99
2018-03-20T04:57:29.593Z,67.72
2018-03-20T04:59:57.842Z,66.52
2018-03-20T05:02:26.863Z,66.96
2018-03-20T05:04:55.143Z,64.14
2018-03-20T05:07:23.401Z,68.03
2018-03-20T05:09:52.422Z,68.55
2018-03-20T05:12:20.674Z,70.74
2018-03-20T05:14:48.943Z,74.85
2018-03-20T05:17:17.971Z,74.80
2018-03-20T05:23:16.168Z,70.24
2018-03-20T05:25:44.432Z,69.69
2018-03-20T05:28:12.690Z,68.05
2018-03-20T05:30:40.947Z,73.26
2018-03-20T05:33:09.995Z,73.33
2018-03-20T05:35:38.246Z,72.86
2018-03-20T05:38:06.504Z,72.95
2018-03-20T05:40:35.526Z,74.84
2018-03-20T05:43:03.782Z,74.22
2018-03-20T05:45:32.038Z,73.01
2018-03-20T05:51:24.814Z,75.96
2018-03-20T05:53:53.838Z,76.05
2018-03-20T05:56:22.102Z,75.03
2018-03-20T05:58:50.358Z,71.93
2018-03-20T06:01:19.390Z,71.47
2018-03-20T06:03:47.644Z,69.14
2018-03-20T06:06:15.919Z,71.47
2018-03-20T06:08:44.926Z,69.05
2018-03-20T06:11:13.182Z,70.48
2018-03-20T06:13:41.442Z,69.80
2018-03-20T06:16:10.467Z,66.27
2018-03-20T06:18:38.721Z,70.20
2018-03-20T06:21:07.778Z,69.29
2018-03-20T06:23:36.039Z,70.49
2018-03-20T06:26:04.295Z,70.47
2018-03-20T06:28:32.558Z,68.58
2018-03-20T06:31:00.813Z,69.90
2018-03-20T06:33:29.075Z,69.21
2018-03-20T06:35:57.375Z,65.62
2018-03-20T06:38:25.587Z,62.97
2018-03-20T06:40:53.847Z,59.90
2018-03-20T06:43:22.103Z,64.43
2018-03-20T06:45:50.354Z,64.75
2018-03-20T06:48:19.384Z,64.42
2018-03-20T06:50:47.637Z,63.99
2018-03-20T06:53:16.666Z,61.24
2018-03-20T06:55:44.928Z,60.85
2018-03-20T06:58:13.179Z,59.23
2018-03-20T07:00:42.207Z,57.33
2018-03-20T07:03:10.462Z,55.12
2018-03-20T07:05:38.722Z,53.85
2018-03-20T07:08:07.744Z,53.67
2018-03-20T07:10:35.999Z,53.21
2018-03-20T07:13:05.012Z,52.64
2018-03-20T07:15:33.263Z,52.89
2018-03-20T07:18:02.283Z,52.06
2018-03-20T07:20:30.547Z,52.90
2018-03-20T07:22:58.802Z,51.94
2018-03-20T07:25:27.841Z,51.55
2018-03-20T07:27:56.085Z,51.81
2018-03-20T07:30:24.336Z,51.99
2018-03-20T07:32:52.598Z,52.73
2018-03-20T07:35:20.848Z,52.09
2018-03-20T07:37:49.103Z,51.93
2018-03-20T07:40:17.355Z,51.41
2018-03-20T07:42:46.379Z,51.88
2018-03-20T07:45:14.634Z,51.52
2018-03-20T07:47:42.891Z,51.69
2018-03-20T07:50:11.923Z,51.86
2018-03-20T07:52:40.178Z,51.14
2018-03-20T07:55:08.430Z,50.54
2018-03-20T07:57:37.460Z,49.70
2018-03-20T08:00:05.711Z,49.10
2018-03-20T08:02:34.741Z,49.01
2018-03-20T08:05:02.992Z,48.82
2018-03-20T08:07:31.254Z,49.89
2018-03-20T08:10:00.271Z,50.05
2018-03-20T08:12:28.534Z,49.24
2018-03-20T08:14:56.810Z,49.51
2018-03-20T08:17:25.085Z,48.29
2018-03-20T08:19:53.340Z,47.12
2018-03-20T08:22:22.392Z,48.85
2018-03-20T08:24:50.660Z,49.34
2018-03-20T08:27:18.913Z,47.41
2018-03-20T08:29:47.178Z,47.32
2018-03-20T08:32:15.434Z,46.48
2018-03-20T08:34:44.478Z,46.40
2018-03-20T08:37:12.742Z,45.78
2018-03-20T08:39:41.004Z,46.27
2018-03-20T08:42:09.260Z,47.33
2018-03-20T08:44:38.291Z,45.56
2018-03-20T08:47:06.549Z,46.02
2018-03-20T08:49:34.814Z,44.64
2018-03-20T08:52:03.074Z,45.78
2018-03-20T08:54:32.109Z,47.21
2018-03-20T08:57:00.364Z,45.02
2018-03-20T08:59:28.623Z,44.77
2018-03-20T09:01:57.648Z,44.90
2018-03-20T09:04:25.919Z,45.20
2018-03-20T09:06:54.171Z,45.24
2018-03-20T09:09:23.192Z,46.06
2018-03-20T09:11:51.458Z,46.88
2018-03-20T09:14:19.733Z,46.86
2018-03-20T09:16:47.998Z,48.13
2018-03-20T09:19:17.019Z,49.09
2018-03-20T09:21:45.278Z,49.39
2018-03-20T09:24:13.538Z,51.08
2018-03-20T09:26:41.812Z,50.68
2018-03-20T09:29:10.827Z,50.91
2018-03-20T09:31:39.090Z,51.36
2018-03-20T09:34:07.350Z,51.68
2018-03-20T09:36:36.382Z,51.34
2018-03-20T09:39:04.660Z,53.14
2018-03-20T09:41:32.918Z,54.98
2018-03-20T09:44:01.186Z,57.33
2018-03-20T09:46:29.446Z,57.81
2018-03-20T09:48:58.513Z,57.09
2018-03-20T09:51:26.738Z,58.89
2018-03-20T09:53:54.990Z,59.56
2018-03-20T09:56:24.026Z,62.59
2018-03-20T09:58:52.298Z,68.39
2018-03-20T10:01:20.571Z,71.71
2018-03-20T10:03:48.836Z,73.47
2018-03-20T10:06:17.097Z,75.30
2018-03-20T10:08:46.126Z,73.93
2018-03-20T10:11:14.391Z,74.81
2018-03-20T10:13:42.654Z,78.12
2018-03-20T10:16:10.923Z,79.69
2018-03-20T10:18:39.951Z,79.72
2018-03-20T10:21:08.219Z,79.84
2018-03-20T10:23:36.485Z,81.14
2018-03-20T10:26:04.756Z,82.26
2018-03-20T10:28:33.019Z,81.07
2018-03-20T10:31:01.300Z,81.92
2018-03-20T10:33:29.567Z,82.90
2018-03-20T10:35:57.843Z,83.10
2018-03-20T10:38:26.116Z,82.67
2018-03-20T10:40:55.154Z,83.02
2018-03-20T10:43:23.416Z,83.47
2018-03-20T10:45:51.690Z,84.55
2018-03-20T10:48:19.951Z,84.62
2018-03-20T10:50:48.219Z,85.55
2018-03-20T10:53:16.474Z,85.42
2018-03-20T10:55:45.511Z,86.20
2018-03-20T10:58:13.766Z,85.00
2018-03-20T11:00:47.454Z,84.12
2018-03-20T11:03:16.480Z,83.38
2018-03-20T11:05:44.752Z,83.16
2018-03-20T11:08:13.014Z,82.80
2018-03-20T11:10:41.267Z,81.89
2018-03-20T11:13:10.306Z,80.71
2018-03-20T11:15:38.564Z,77.84
2018-03-20T11:18:06.844Z,77.57
2018-03-20T11:20:35.102Z,77.16
2018-03-20T11:23:03.372Z,77.21
2018-03-20T11:25:32.404Z,76.46
2018-03-20T11:28:00.666Z,75.91
2018-03-20T11:30:28.932Z,76.04
2018-03-20T11:32:57.209Z,74.50
2018-03-20T11:35:25.474Z,73.23
2018-03-20T11:37:54.507Z,73.41
2018-03-20T11:40:22.771Z,73.28
2018-03-20T11:42:51.043Z,73.69
2018-03-20T11:45:19.395Z,73.05
2018-03-20T11:47:47.570Z,72.25
2018-03-20T11:50:15.842Z,72.33
2018-03-20T11:52:44.886Z,73.71
2018-03-20T11:55:13.155Z,73.07
2018-03-20T11:57:41.431Z,70.68
2018-03-20T12:00:09.698Z,72.62
2018-03-20T12:02:37.958Z,74.27
2018-03-20T12:05:06.234Z,73.62
2018-03-20T12:07:34.507Z,72.48
2018-03-20T12:10:02.777Z,72.98
2018-03-20T12:12:31.045Z,73.54
2018-03-20T12:15:00.082Z,73.73
2018-03-20T12:17:29.108Z,73.82
2018-03-20T12:19:57.376Z,73.99
2018-03-20T12:22:25.640Z,73.46
2018-03-20T12:24:53.910Z,74.05
2018-03-20T12:27:22.171Z,75.00
2018-03-20T12:29:50.440Z,74.95
2018-03-20T12:32:18.698Z,74.56
2018-03-20T12:34:46.967Z,75.89
2018-03-20T12:37:15.231Z,75.54
2018-03-20T12:39:44.282Z,75.70
2018-03-20T12:42:12.555Z,75.82
2018-03-20T12:44:40.817Z,76.30
2018-03-20T12:47:09.082Z,75.65
2018-03-20T12:49:37.343Z,76.31
2018-03-20T12:52:05.611Z,75.91
2018-03-20T12:54:33.890Z,75.98
2018-03-20T12:57:02.916Z,75.95
2018-03-20T12:59:31.179Z,75.90
2018-03-20T13:01:59.453Z,76.29
2018-03-20T13:04:27.711Z,75.07
2018-03-20T13:06:55.990Z,74.89
2018-03-20T13:09:24.251Z,76.02
2018-03-20T13:11:53.297Z,76.34
2018-03-20T13:14:21.559Z,76.69
2018-03-20T13:16:49.853Z,76.84
2018-03-20T13:19:18.129Z,76.27
2018-03-20T13:21:46.385Z,76.25
2018-03-20T13:24:14.664Z,76.39
2018-03-20T13:26:42.924Z,76.38
2018-03-20T13:29:11.195Z,76.00
2018-03-20T13:31:39.496Z,75.69
2018-03-20T13:34:07.738Z,77.39
2018-03-20T13:36:36.004Z,77.05
2018-03-20T13:39:05.057Z,76.90
2018-03-20T13:41:33.320Z,77.83
2018-03-20T13:44:01.582Z,77.75
2018-03-20T13:46:29.859Z,77.87
2018-03-20T13:48:58.128Z,77.34
2018-03-20T13:51:26.400Z,78.15
2018-03-20T13:53:54.669Z,79.76
2018-03-20T13:56:22.935Z,78.72
2018-03-20T13:58:51.214Z,78.39
2018-03-20T14:01:19.479Z,81.44
2018-03-20T14:03:48.507Z,78.68
2018-03-20T14:06:16.781Z,78.32
2018-03-20T14:08:45.056Z,78.31
2018-03-20T14:11:13.317Z,79.18
2018-03-20T14:13:41.583Z,78.84
2018-03-20T14:16:09.851Z,79.74
2018-03-20T14:18:38.886Z,79.19
2018-03-20T14:21:07.156Z,80.36
2018-03-20T14:23:35.449Z,80.45
2018-03-20T14:26:03.765Z,80.18
2018-03-20T14:28:31.980Z,79.23
2018-03-20T14:31:00.261Z,79.63
2018-03-20T14:33:28.514Z,79.58
2018-03-20T14:35:56.788Z,79.84
2018-03-20T14:38:25.042Z,79.64
2018-03-20T14:40:54.078Z,79.49
2018-03-20T14:43:22.339Z,79.65
2018-03-20T14:45:50.612Z,79.85
2018-03-20T14:48:18.878Z,79.94
2018-03-20T14:50:47.191Z,79.93
2018-03-20T14:53:15.411Z,80.41
2018-03-20T14:55:44.466Z,79.77
2018-03-20T14:58:12.727Z,80.45
2018-03-20T15:00:41.018Z,80.45
2018-03-20T15:03:09.284Z,80.23
2018-03-20T15:05:37.567Z,81.38
2018-03-20T15:08:06.594Z,81.82
2018-03-20T15:10:34.867Z,82.11
2018-03-20T15:13:03.124Z,81.99
2018-03-20T15:15:31.403Z,82.41
2018-03-20T15:17:59.671Z,82.59
2018-03-20T15:20:27.940Z,82.70
2018-03-20T15:22:56.211Z,82.47
2018-03-20T15:25:24.483Z,83.40
2018-03-20T15:27:52.751Z,82.75
2018-03-20T15:30:21.028Z,83.30
2018-03-20T15:32:49.292Z,83.82
2018-03-20T15:35:17.554Z,83.56
2018-03-20T15:37:45.826Z,83.37
2018-03-20T15:40:14.867Z,83.52
2018-03-20T15:42:43.127Z,83.26
2018-03-20T15:45:11.407Z,82.88
2018-03-20T15:47:39.669Z,83.46
2018-03-20T15:50:07.945Z,82.45
2018-03-20T15:52:36.215Z,82.82
2018-03-20T15:55:04.470Z,81.77
2018-03-20T15:57:33.517Z,81.84
2018-03-20T16:00:01.775Z,81.66
2018-03-20T16:02:30.078Z,81.40
2018-03-20T16:04:58.345Z,81.42
2018-03-20T16:07:27.418Z,81.78
2018-03-20T16:09:55.699Z,81.23
2018-03-20T16:12:23.963Z,81.56
2018-03-20T16:14:52.231Z,81.33
2018-03-20T16:17:20.499Z,81.49
2018-03-20T16:19:48.770Z,81.46
2018-03-20T16:22:17.060Z,81.36
2018-03-20T16:24:46.058Z,81.42
2018-03-20T16:27:14.324Z,81.78
2018-03-20T16:29:42.591Z,81.48
2018-03-20T16:32:10.851Z,81.41
2018-03-20T16:34:39.887Z,81.55
2018-03-20T16:37:08.153Z,81.56
2018-03-20T16:39:36.425Z,81.66
2018-03-20T16:42:04.680Z,82.20
2018-03-20T16:44:33.712Z,81.96
2018-03-20T16:47:01.974Z,81.86
2018-03-20T16:49:30.240Z,81.72
2018-03-20T16:51:58.507Z,82.07
2018-03-20T16:54:27.544Z,81.78
2018-03-20T16:56:55.812Z,81.79
2018-03-20T16:59:24.084Z,81.81
2018-03-20T17:01:52.330Z,81.92
2018-03-20T17:04:20.616Z,81.70
2018-03-20T17:06:48.871Z,81.66
2018-03-20T17:09:17.892Z,81.62
2018-03-20T17:11:46.146Z,81.47
2018-03-20T17:14:14.411Z,81.53
2018-03-20T17:16:43.437Z,81.53
2018-03-20T17:19:11.693Z,81.53
2018-03-20T17:21:40.718Z,81.37
2018-03-20T17:24:08.970Z,81.58
2018-03-20T17:26:37.227Z,81.59
2018-03-20T17:29:06.246Z,81.66
2018-03-20T17:31:34.501Z,81.90
2018-03-20T17:34:02.755Z,81.97
2018-03-20T17:36:31.014Z,82.06
2018-03-20T17:38:59.275Z,82.07
2018-03-20T17:41:28.299Z,81.90
2018-03-20T17:43:56.546Z,82.23
2018-03-20T17:46:24.839Z,82.09
2018-03-20T17:48:53.063Z,82.30
2018-03-20T17:51:21.320Z,82.14
2018-03-20T17:53:49.575Z,81.98
2018-03-20T17:56:17.840Z,82.13
2018-03-20T17:58:46.086Z,81.64
2018-03-20T18:01:14.346Z,81.28
2018-03-20T18:03:42.600Z,80.25
2018-03-20T18:06:11.619Z,79.42
2018-03-20T18:08:39.863Z,79.03
2018-03-20T18:11:08.883Z,78.44
2018-03-20T18:13:37.122Z,77.85
2018-03-20T18:16:06.140Z,77.65
2018-03-20T18:18:34.391Z,76.89
2018-03-20T18:21:03.406Z,77.21
2018-03-20T18:23:31.661Z,76.64
2018-03-20T18:26:01.246Z,76.95
2018-03-20T18:28:29.503Z,77.03
2018-03-20T18:30:58.519Z,77.42
2018-03-20T18:33:26.807Z,76.43
2018-03-20T18:35:55.032Z,75.80
2018-03-20T18:38:23.301Z,75.25
2018-03-20T18:40:51.557Z,75.41
2018-03-20T18:43:19.810Z,75.34
2018-03-20T18:45:48.826Z,75.13
2018-03-20T18:48:17.082Z,75.58
2018-03-20T18:50:46.098Z,75.48
2018-03-20T18:53:14.364Z,75.66
2018-03-20T18:55:42.615Z,75.24
2018-03-20T18:58:10.868Z,75.02
2018-03-20T19:00:39.127Z,75.83
2018-03-20T19:03:07.383Z,75.70
2018-03-20T19:05:35.652Z,75.90
2018-03-20T19:08:04.667Z,75.97
2018-03-20T19:10:32.919Z,75.85
2018-03-20T19:13:01.175Z,75.59
2018-03-20T19:15:29.418Z,75.88
2018-03-20T19:17:57.692Z,75.62
2018-03-20T19:20:25.939Z,75.43
2018-03-20T19:22:54.190Z,75.11
2018-03-20T19:25:23.208Z,74.96
2018-03-20T19:27:51.462Z,74.96
2018-03-20T19:30:20.487Z,74.93
2018-03-20T19:32:48.733Z,74.41
2018-03-20T19:35:16.997Z,74.63
2018-03-20T19:37:45.259Z,74.56
2018-03-20T19:40:13.522Z,74.01
2018-03-20T19:42:41.768Z,74.20
2018-03-20T19:45:10.020Z,74.43
2018-03-20T19:47:38.275Z,74.63
2018-03-20T19:50:07.283Z,74.53
2018-03-20T19:52:35.538Z,74.15
2018-03-20T19:55:04.555Z,73.81
2018-03-20T19:57:32.809Z,73.94
2018-03-20T20:00:01.067Z,74.05
2018-03-20T20:02:29.328Z,74.33
2018-03-20T20:04:57.584Z,74.43
2018-03-20T20:07:25.844Z,73.90
2018-03-20T20:09:54.107Z,74.19
2018-03-20T20:12:22.378Z,74.32
2018-03-20T20:14:50.634Z,74.49
2018-03-20T20:17:19.652Z,74.39
2018-03-20T20:19:47.910Z,74.51
2018-03-20T20:22:16.931Z,74.64
2018-03-20T20:24:45.191Z,74.65
2018-03-20T20:27:13.456Z,74.74
2018-03-20T20:29:42.497Z,74.73
2018-03-20T20:32:10.758Z,75.01
2018-03-20T20:34:39.056Z,75.39
2018-03-20T20:37:08.118Z,75.82
2018-03-20T20:39:36.388Z,76.11
2018-03-20T20:42:04.653Z,76.25
2018-03-20T20:44:33.680Z,76.40
2018-03-20T20:47:01.937Z,76.59
2018-03-20T20:49:30.196Z,76.78
2018-03-20T20:51:59.218Z,76.53
2018-03-20T20:54:27.496Z,76.88
2018-03-20T20:56:55.761Z,76.44
2018-03-20T20:59:24.003Z,76.68
2018-03-20T21:01:53.029Z,76.62
2018-03-20T21:04:21.271Z,77.34
2018-03-20T21:06:50.299Z,76.93
2018-03-20T21:09:18.571Z,76.79
2018-03-20T21:11:46.827Z,77.31
2018-03-20T21:14:15.848Z,77.22
2018-03-20T21:16:44.103Z,77.20
2018-03-20T21:19:12.391Z,77.60
2018-03-20T21:21:40.647Z,78.21
2018-03-20T21:24:09.664Z,78.58
2018-03-20T21:26:37.923Z,78.90
2018-03-20T21:29:06.190Z,78.95
2018-03-20T21:31:35.214Z,78.98
2018-03-20T21:34:03.467Z,79.06
2018-03-20T21:36:31.760Z,79.03
2018-03-20T21:39:00.017Z,78.99
2018-03-20T21:41:29.045Z,79.14
2018-03-20T21:43:57.361Z,79.22
2018-03-20T21:46:25.636Z,79.94
2018-03-20T21:48:53.887Z,79.44
2018-03-20T21:51:22.143Z,78.96
2018-03-20T21:53:51.025Z,79.33
2018-03-20T21:56:19.272Z,80.07
2018-03-20T21:58:48.335Z,79.63
2018-03-20T22:01:16.596Z,79.47
2018-03-20T22:03:44.851Z,79.34
2018-03-20T22:06:13.107Z,79.59
2018-03-20T22:08:41.364Z,79.54
2018-03-20T22:11:10.379Z,79.72
2018-03-20T22:13:38.643Z,80.16
2018-03-20T22:16:06.898Z,80.36
2018-03-20T22:18:35.154Z,80.78
2018-03-20T22:21:03.406Z,81.10
2018-03-20T22:23:31.663Z,81.62
2018-03-20T22:26:00.034Z,81.91
2018-03-20T22:28:28.304Z,81.80
2018-03-20T22:30:57.324Z,81.72
2018-03-20T22:33:25.622Z,81.15
2018-03-20T22:35:53.958Z,81.10
2018-03-20T22:38:22.230Z,81.12
2018-03-20T22:40:50.474Z,80.91
2018-03-20T22:43:19.498Z,81.17
2018-03-20T22:45:47.755Z,81.16
2018-03-20T22:48:16.822Z,81.39
2018-03-20T22:50:45.188Z,81.13
2018-03-20T22:53:13.494Z,81.35
2018-03-20T22:55:41.749Z,81.69
2018-03-20T22:58:10.010Z,82.25
2018-03-20T23:00:38.262Z,82.42
2018-03-20T23:03:06.528Z,82.34
2018-03-20T23:05:34.774Z,82.32
2018-03-20T23:08:03.804Z,82.47
2018-03-20T23:10:32.046Z,82.37
2018-03-20T23:13:01.079Z,82.46
2018-03-20T23:15:29.466Z,82.81
2018-03-20T23:17:58.551Z,82.87
2018-03-20T23:20:26.803Z,82.66
2018-03-20T23:22:55.834Z,82.72
2018-03-20T23:25:24.099Z,82.76
2018-03-20T23:27:52.346Z,82.95
2018-03-20T23:30:20.609Z,82.47
2018-03-20T23:32:49.626Z,82.06
2018-03-20T23:35:17.881Z,81.83
2018-03-20T23:37:46.900Z,82.42
2018-03-20T23:40:15.162Z,82.65
2018-03-20T23:42:44.184Z,82.73
2018-03-20T23:45:12.448Z,82.65
2018-03-20T23:47:40.686Z,82.67
2018-03-20T23:50:09.717Z,83.09
2018-03-20T23:52:37.958Z,83.48
2018-03-20T23:55:06.982Z,83.57
2018-03-20T23:57:35.258Z,83.59
